Time;durP1;ratioP1;P1;durP2;ratioP2;P2;SDS_P1;SDS_P2;PMS_P1;PMS_P2;Temp;Humidity;BMP_temperature;BMP_pressure;BME280_temperature;BME280_humidity;BME280_pressure;Samples;Min_cycle;Max_cycle;Signal;HPM_P1;HPM_P2
2023/06/12 00:15:42;;;;;;;10.50;8.37;;;12.70;99.90;;;;;;5663312;24;20698;-83
2023/06/12 00:36:24;;;;;;;5.90;5.40;;;13.20;87.30;;;;;;5737643;24;20221;-86
2023/06/12 00:56:46;;;;;;;7.60;5.27;;;12.90;87.50;;;;;;5561972;24;20256;-83
2023/06/12 01:32:15;;;;;;;4.70;4.30;;;12.30;86.30;;;;;;5838350;23;20718;-83
2023/06/12 02:01:58;;;;;;;5.40;4.60;;;11.70;90.30;;;;;;5664368;24;20568;-84
2023/06/12 02:27:47;;;;;;;6.73;4.80;;;11.30;92.50;;;;;;5544757;24;20373;-82
2023/06/12 02:53:23;;;;;;;8.47;4.90;;;10.80;93.50;;;;;;5670794;24;20759;-83
2023/06/12 03:23:45;;;;;;;4.90;4.40;;;12.00;85.50;;;;;;5684361;24;20250;-82
2023/06/12 03:43:59;;;;;;;5.50;4.33;;;12.30;85.20;;;;;;5741652;24;20170;-82
2023/06/12 04:04:20;;;;;;;4.83;3.90;;;12.40;84.50;;;;;;5680735;24;20196;-83
2023/06/12 04:29:17;;;;;;;6.40;4.70;;;13.00;84.10;;;;;;5658473;24;20632;-83
2023/06/12 05:19:51;;;;;;;7.70;5.10;;;15.20;81.60;;;;;;5562721;25;20652;-84
2023/06/12 06:11:12;;;;;;;5.90;4.13;;;17.70;78.00;;;;;;5641283;24;20656;-82
2023/06/12 06:15:31;;;;;;;5.27;3.63;;;17.70;78.00;;;;;;5538273;24;20471;-79
2023/06/12 06:36:28;;;;;;;9.53;3.57;;;18.90;65.90;;;;;;5630674;24;20271;-80
2023/06/12 07:17:06;;;;;;;4.63;2.60;;;18.90;46.40;;;;;;5996699;23;20552;-82
2023/06/12 07:37:27;;;;;;;2.10;2.00;;;19.60;44.80;;;;;;6014979;23;20375;-79
2023/06/12 08:07:48;;;;;;;2.80;2.10;;;20.10;40.50;;;;;;5805862;23;20553;-80
2023/06/12 09:53:40;;;;;;;3.13;2.20;;;20.30;40.60;;;;;;5559677;24;21282;-79
2023/06/12 10:14:26;;;;;;;2.90;1.90;;;20.50;40.80;;;;;;5507183;24;20194;-80
2023/06/12 10:44:41;;;;;;;2.90;2.30;;;20.70;39.30;;;;;;5573181;24;20597;-77
2023/06/12 11:20:00;;;;;;;5.63;2.47;;;20.20;40.70;;;;;;5394486;25;20598;-80
2023/06/12 11:51:07;;;;;;;5.73;2.33;;;21.10;39.40;;;;;;5559918;24;20601;-79
2023/06/12 11:55:26;;;;;;;3.37;2.50;;;21.00;38.00;;;;;;5463463;24;20635;-79
2023/06/12 12:16:12;;;;;;;1.95;1.70;;;21.50;38.70;;;;;;5676628;24;20614;-80
2023/06/12 12:41:49;;;;;;;4.50;2.53;;;21.50;38.70;;;;;;5636627;24;20237;-79
2023/06/12 13:12:15;;;;;;;2.70;2.28;;;22.20;37.00;;;;;;5635405;24;20197;-80
2023/06/12 13:16:37;;;;;;;6.53;2.50;;;21.90;37.10;;;;;;5561353;24;20580;-78
2023/06/12 13:41:57;;;;;;;3.53;2.30;;;21.90;37.40;;;;;;5755059;23;20673;-85
2023/06/12 14:07:56;;;;;;;4.60;2.65;;;22.00;37.20;;;;;;5590051;24;20189;-84
2023/06/12 14:33:24;;;;;;;5.70;2.55;;;22.60;36.70;;;;;;5614176;24;20338;-86
2023/06/12 14:37:48;;;;;;;2.95;2.50;;;23.60;36.50;;;;;;5574375;24;20660;-81
2023/06/12 14:58:32;;;;;;;4.43;2.80;;;22.40;37.60;;;;;;5574212;24;20786;-85
2023/06/12 15:44:04;;;;;;;3.58;2.80;;;23.80;36.30;;;;;;5518716;25;20176;-84
2023/06/12 16:19:10;;;;;;;3.03;2.60;;;20.20;38.00;;;;;;5597512;24;20197;-80
2023/06/12 16:40:07;;;;;;;6.47;2.80;;;19.00;45.30;;;;;;5822866;24;20238;-82
2023/06/12 18:01:12;;;;;;;2.07;1.80;;;15.20;58.80;;;;;;5619419;24;20786;-83
2023/06/12 18:31:44;;;;;;;1.97;1.50;;;14.60;72.20;;;;;;5941074;23;20258;-83
2023/06/12 18:51:58;;;;;;;4.40;2.07;;;14.10;77.10;;;;;;5699468;24;20238;-86
2023/06/12 19:21:45;;;;;;;2.30;1.97;;;13.70;79.40;;;;;;5538414;24;20797;-83
2023/06/12 19:42:06;;;;;;;2.33;2.13;;;13.60;80.70;;;;;;5627278;24;20726;-87
2023/06/12 20:07:24;;;;;;;3.40;2.20;;;13.50;81.80;;;;;;5628750;24;20169;-84
2023/06/12 20:43:02;;;;;;;3.13;2.50;;;13.10;84.80;;;;;;5635757;24;20424;-82
2023/06/12 21:08:56;;;;;;;3.50;2.50;;;12.80;87.60;;;;;;5894896;23;20196;-83
2023/06/12 21:43:53;;;;;;;4.70;2.60;;;12.40;89.00;;;;;;5696425;23;21067;-82
2023/06/12 22:09:45;;;;;;;4.07;2.30;;;11.90;90.90;;;;;;5603717;24;20428;-84
2023/06/12 22:40:12;;;;;;;3.30;2.20;;;11.50;92.80;;;;;;5912438;23;20155;-84
2023/06/12 23:00:33;;;;;;;2.17;1.93;;;11.10;94.00;;;;;;5574939;24;20182;-81
2023/06/12 23:45:32;;;;;;;3.80;3.50;;;10.30;99.90;;;;;;5411115;25;20205;-85
